KFSM

Fort Smith Regional Airport

Airport
ICAO code
KFSM
IATA Code
FSM
Summary
ICAO Region
NAM
ICAO Territory
Location

Fort Smith, Arkansas

Serving
Fort Smith
Elevation
469 ft
Coordinates
35° 20' 7" N , 94° 22' 4" W
KCC
Metar
KFSM 181553Z VRB04KT 10SM OVC038 24/19 A2991 RMK AO2 SLP122 T02440189

Joint use (civil/Air National Guard) regional airport serving Fort Smith, Arkansas, USA, located 3 nm southeast of the city's business district.

Airport map

Aerial View

SKYbrary Partners:

Safety knowledge contributed by: